createdAt,value
2018-05-26T00:00:19.084Z,12.00
2018-05-26T00:02:47.503Z,13.27
2018-05-26T00:05:15.748Z,13.20
2018-05-26T00:07:44.805Z,13.70
2018-05-26T00:10:13.053Z,14.17
2018-05-26T00:12:41.341Z,11.97
2018-05-26T00:15:09.607Z,12.23
2018-05-26T00:17:38.635Z,13.27
2018-05-26T00:20:06.880Z,12.40
2018-05-26T00:22:35.162Z,12.97
2018-05-26T00:25:03.410Z,12.20
2018-05-26T00:27:31.678Z,12.13
2018-05-26T00:29:59.950Z,13.30
2018-05-26T00:32:28.243Z,12.37
2018-05-26T00:34:56.477Z,10.97
2018-05-26T00:37:24.739Z,11.83
2018-05-26T00:39:53.193Z,12.90
2018-05-26T00:42:21.444Z,15.80
2018-05-26T00:44:49.715Z,16.63
2018-05-26T00:47:17.995Z,18.03
2018-05-26T00:49:46.276Z,14.67
2018-05-26T00:52:14.517Z,15.07
2018-05-26T00:54:42.849Z,15.03
2018-05-26T00:57:11.065Z,13.67
2018-05-26T00:59:39.329Z,13.27
2018-05-26T01:02:07.579Z,12.73
2018-05-26T01:04:35.864Z,12.47
2018-05-26T01:07:04.114Z,12.20
2018-05-26T01:09:32.506Z,13.30
2018-05-26T01:12:00.757Z,12.73
2018-05-26T01:14:29.896Z,11.53
2018-05-26T01:16:58.209Z,13.03
2018-05-26T01:19:26.444Z,11.30
2018-05-26T01:21:54.839Z,15.03
2018-05-26T01:24:23.088Z,13.70
2018-05-26T01:26:52.293Z,13.13
2018-05-26T01:29:21.301Z,12.33
2018-05-26T01:31:49.596Z,11.70
2018-05-26T01:34:17.840Z,12.63
2018-05-26T01:36:46.869Z,13.30
2018-05-26T01:39:15.128Z,14.03
2018-05-26T01:41:44.160Z,13.37
2018-05-26T01:44:12.409Z,12.53
2018-05-26T01:46:41.540Z,13.20
2018-05-26T01:49:09.796Z,12.83
2018-05-26T01:51:38.058Z,15.23
2018-05-26T01:54:07.100Z,12.23
2018-05-26T01:56:35.345Z,12.20
2018-05-26T01:59:04.381Z,10.23
2018-05-26T02:01:32.635Z,10.60
2018-05-26T02:04:01.838Z,11.87
2018-05-26T02:06:30.104Z,10.60
2018-05-26T02:08:59.132Z,10.60
2018-05-26T02:11:27.998Z,10.63
2018-05-26T02:13:56.452Z,9.90
2018-05-26T02:16:24.704Z,10.10
2018-05-26T02:18:52.981Z,11.10
2018-05-26T02:21:21.229Z,10.40
2018-05-26T02:23:50.259Z,10.67
2018-05-26T02:26:18.500Z,10.50
2018-05-26T02:28:47.525Z,11.30
2018-05-26T02:31:15.777Z,10.50
2018-05-26T02:33:44.040Z,10.80
2018-05-26T02:36:12.320Z,10.60
2018-05-26T02:38:40.573Z,10.03
2018-05-26T02:41:08.884Z,9.30
2018-05-26T02:43:37.112Z,10.33
2018-05-26T02:46:05.380Z,10.50
2018-05-26T02:48:33.626Z,10.20
2018-05-26T02:51:01.905Z,10.03
2018-05-26T02:53:30.137Z,12.03
2018-05-26T02:55:58.414Z,12.43
2018-05-26T02:58:26.677Z,12.73
2018-05-26T03:00:54.974Z,11.90
2018-05-26T03:03:23.267Z,13.33
2018-05-26T03:05:57.265Z,14.03
2018-05-26T03:08:31.320Z,10.77
2018-05-26T03:11:05.357Z,11.50
2018-05-26T03:13:39.990Z,12.67
2018-05-26T03:19:10.566Z,12.20
2018-05-26T03:21:39.037Z,12.17
2018-05-26T03:24:07.300Z,13.17
2018-05-26T03:26:35.554Z,11.87
2018-05-26T03:29:03.812Z,11.70
2018-05-26T03:31:32.082Z,12.20
2018-05-26T03:34:00.362Z,11.27
2018-05-26T03:36:28.617Z,11.60
2018-05-26T03:38:56.857Z,10.40
2018-05-26T03:41:25.116Z,13.50
2018-05-26T03:43:53.395Z,12.07
2018-05-26T03:46:21.655Z,13.43
2018-05-26T03:48:49.916Z,12.43
2018-05-26T03:51:18.174Z,13.00
2018-05-26T03:53:46.545Z,11.30
2018-05-26T03:56:27.408Z,12.10
2018-05-26T03:59:08.285Z,10.73
2018-05-26T04:01:37.938Z,12.10
2018-05-26T04:04:06.312Z,11.63
2018-05-26T04:06:34.569Z,10.77
2018-05-26T04:09:03.638Z,11.17
2018-05-26T04:11:31.860Z,11.13
2018-05-26T04:14:00.141Z,11.13
2018-05-26T04:16:28.392Z,11.67
2018-05-26T04:18:58.168Z,11.10
2018-05-26T04:21:26.425Z,12.17
2018-05-26T04:23:54.709Z,11.70
2018-05-26T04:26:22.953Z,11.80
2018-05-26T04:28:51.976Z,12.07
2018-05-26T04:31:20.240Z,12.17
2018-05-26T04:33:49.464Z,13.83
2018-05-26T04:36:17.729Z,13.57
2018-05-26T04:38:46.771Z,13.73
2018-05-26T04:41:15.060Z,12.33
2018-05-26T04:43:43.321Z,12.90
2018-05-26T04:46:11.610Z,13.77
2018-05-26T04:48:39.870Z,12.43
2018-05-26T04:51:08.113Z,13.33
2018-05-26T04:53:37.177Z,12.30
2018-05-26T04:56:06.427Z,13.67
2018-05-26T04:58:35.484Z,14.43
2018-05-26T05:01:03.756Z,11.23
2018-05-26T05:03:32.016Z,11.60
2018-05-26T05:06:00.288Z,12.90
2018-05-26T05:08:28.548Z,12.63
2018-05-26T05:10:56.806Z,12.30
2018-05-26T05:13:25.083Z,11.83
2018-05-26T05:15:53.482Z,15.70
2018-05-26T05:18:22.517Z,12.23
2018-05-26T05:20:50.798Z,12.30
2018-05-26T05:23:19.049Z,12.47
2018-05-26T05:25:48.056Z,14.67
2018-05-26T05:28:16.335Z,14.63
2018-05-26T05:30:44.595Z,15.37
2018-05-26T05:33:13.635Z,14.53
2018-05-26T05:35:42.013Z,15.63
2018-05-26T05:38:10.286Z,13.93
2018-05-26T05:40:38.561Z,13.70
2018-05-26T05:43:07.592Z,14.23
2018-05-26T05:45:35.860Z,15.20
2018-05-26T05:48:04.103Z,13.23
2018-05-26T05:50:33.135Z,16.07
2018-05-26T05:53:01.393Z,15.30
2018-05-26T05:55:30.397Z,14.60
2018-05-26T05:57:58.665Z,15.70
2018-05-26T06:00:27.676Z,14.83
2018-05-26T06:02:55.972Z,15.10
2018-05-26T06:05:24.700Z,15.00
2018-05-26T06:07:52.956Z,14.23
2018-05-26T06:10:21.244Z,12.63
2018-05-26T06:12:50.236Z,15.00
2018-05-26T06:15:18.508Z,15.40
2018-05-26T06:17:46.788Z,14.50
2018-05-26T06:20:15.048Z,16.03
2018-05-26T06:22:43.305Z,14.97
2018-05-26T06:25:12.366Z,13.23
2018-05-26T06:27:40.607Z,15.40
2018-05-26T06:30:08.882Z,14.20
2018-05-26T06:32:37.137Z,12.63
2018-05-26T06:35:06.169Z,12.17
2018-05-26T06:37:34.424Z,10.50
2018-05-26T06:40:03.449Z,10.87
2018-05-26T06:42:31.793Z,11.03
2018-05-26T06:45:00.051Z,10.90
2018-05-26T06:47:28.297Z,10.13
2018-05-26T06:49:56.541Z,13.67
2018-05-26T06:52:24.844Z,8.17
2018-05-26T06:54:53.088Z,7.27
2018-05-26T06:57:21.364Z,7.77
2018-05-26T06:59:49.610Z,8.10
2018-05-26T07:02:17.845Z,8.50
2018-05-26T07:04:46.866Z,12.73
2018-05-26T07:07:15.135Z,9.50
2018-05-26T07:09:44.163Z,7.87
2018-05-26T07:12:12.436Z,7.00
2018-05-26T07:14:40.714Z,7.37
2018-05-26T07:17:09.007Z,7.63
2018-05-26T07:19:37.248Z,7.40
2018-05-26T07:22:06.261Z,11.53
2018-05-26T07:24:34.552Z,11.63
2018-05-26T07:27:02.788Z,8.10
2018-05-26T07:29:31.060Z,13.87
2018-05-26T07:31:59.315Z,8.33
2018-05-26T07:34:27.552Z,8.13
2018-05-26T07:36:55.818Z,9.50
2018-05-26T07:39:24.822Z,10.07
2018-05-26T07:41:53.823Z,10.30
2018-05-26T07:44:22.947Z,7.87
2018-05-26T07:46:51.170Z,7.10
2018-05-26T07:49:19.420Z,8.90
2018-05-26T07:51:47.709Z,8.40
2018-05-26T07:54:15.988Z,8.10
2018-05-26T07:56:44.228Z,8.33
2018-05-26T07:59:13.239Z,17.97
2018-05-26T08:01:41.509Z,9.43
2018-05-26T08:04:09.770Z,14.00
2018-05-26T08:06:38.827Z,7.90
2018-05-26T08:09:07.087Z,7.47
2018-05-26T08:11:35.335Z,8.97
2018-05-26T08:14:04.377Z,10.40
2018-05-26T08:16:32.621Z,7.43
2018-05-26T08:19:01.647Z,7.80
2018-05-26T08:21:29.913Z,7.63
2018-05-26T08:23:58.176Z,10.07
2018-05-26T08:26:27.357Z,7.83
2018-05-26T08:28:55.632Z,8.63
2018-05-26T08:31:23.865Z,8.83
2018-05-26T08:33:52.311Z,6.97
2018-05-26T08:36:20.531Z,11.07
2018-05-26T08:38:48.794Z,6.70
2018-05-26T08:41:17.053Z,5.87
2018-05-26T08:43:46.077Z,7.17
2018-05-26T08:46:15.084Z,5.80
2018-05-26T08:48:43.365Z,5.70
2018-05-26T08:51:11.685Z,7.33
2018-05-26T08:53:39.901Z,6.13
2018-05-26T08:56:08.908Z,6.17
2018-05-26T08:58:37.240Z,9.97
2018-05-26T09:01:05.510Z,6.30
2018-05-26T09:03:33.784Z,8.13
2018-05-26T09:06:02.121Z,8.07
2018-05-26T09:08:30.392Z,5.93
2018-05-26T09:10:59.424Z,5.60
2018-05-26T09:13:28.411Z,6.17
2018-05-26T09:15:56.669Z,5.60
2018-05-26T09:18:25.961Z,5.93
2018-05-26T09:20:54.201Z,5.87
2018-05-26T09:23:22.420Z,5.43
2018-05-26T09:25:51.975Z,5.93
2018-05-26T09:28:20.332Z,6.40
2018-05-26T09:30:48.716Z,4.90
2018-05-26T09:33:17.740Z,5.07
2018-05-26T09:35:45.999Z,4.97
2018-05-26T09:38:15.021Z,5.50
2018-05-26T09:40:43.298Z,4.80
2018-05-26T09:43:11.591Z,4.80
2018-05-26T09:45:39.827Z,5.23
2018-05-26T09:48:08.883Z,6.10
2018-05-26T09:50:37.134Z,4.93
2018-05-26T09:53:05.416Z,6.20
2018-05-26T09:55:33.643Z,5.10
2018-05-26T09:58:01.910Z,13.57
2018-05-26T10:00:30.188Z,5.77
2018-05-26T10:02:58.432Z,5.67
2018-05-26T10:05:26.705Z,6.80
2018-05-26T10:07:55.004Z,5.60
2018-05-26T10:10:23.279Z,5.63
2018-05-26T10:12:51.520Z,9.07
2018-05-26T10:15:20.547Z,5.80
2018-05-26T10:17:49.552Z,7.10
2018-05-26T10:20:17.824Z,6.37
2018-05-26T10:22:46.058Z,6.47
2018-05-26T10:25:14.307Z,6.90
2018-05-26T10:27:42.556Z,5.57
2018-05-26T10:30:11.579Z,5.23
2018-05-26T10:32:39.850Z,6.30
2018-05-26T10:35:08.098Z,5.47
2018-05-26T10:37:37.167Z,5.23
2018-05-26T10:40:05.515Z,5.10
2018-05-26T10:42:33.778Z,5.70
2018-05-26T10:45:02.900Z,5.27
2018-05-26T10:47:31.125Z,4.43
2018-05-26T10:49:59.428Z,4.70
2018-05-26T10:52:27.627Z,4.93
2018-05-26T10:54:55.941Z,5.00
2018-05-26T10:57:24.193Z,5.33
2018-05-26T10:59:52.452Z,5.17
2018-05-26T11:02:21.473Z,5.63
2018-05-26T11:04:49.760Z,5.20
2018-05-26T11:07:18.011Z,5.97
2018-05-26T11:09:47.045Z,6.20
2018-05-26T11:12:15.288Z,6.13
2018-05-26T11:14:44.316Z,6.87
2018-05-26T11:17:12.559Z,6.27
2018-05-26T11:19:41.576Z,5.40
2018-05-26T11:22:09.825Z,4.90
2018-05-26T11:24:38.191Z,4.97
2018-05-26T11:27:06.360Z,6.03
2018-05-26T11:29:35.922Z,6.30
2018-05-26T11:32:05.861Z,5.80
2018-05-26T11:34:36.613Z,6.47
2018-05-26T11:37:04.843Z,5.97
2018-05-26T11:39:33.877Z,5.43
2018-05-26T11:42:02.143Z,5.87
2018-05-26T11:44:31.149Z,5.50
2018-05-26T11:46:59.399Z,6.10
2018-05-26T11:49:28.424Z,5.20
2018-05-26T11:51:56.677Z,4.87
2018-05-26T11:54:26.325Z,6.73
2018-05-26T11:56:55.301Z,5.70
2018-05-26T11:59:25.081Z,6.40
2018-05-26T12:01:53.857Z,7.93
2018-05-26T12:04:22.082Z,13.93
2018-05-26T12:06:50.332Z,19.50
2018-05-26T12:09:18.590Z,11.07
2018-05-26T12:11:46.853Z,10.40
2018-05-26T12:14:15.125Z,5.20
2018-05-26T12:16:44.731Z,7.20
2018-05-26T12:19:14.025Z,6.07
2018-05-26T12:21:42.306Z,5.80
2018-05-26T12:24:10.557Z,5.57
2018-05-26T12:26:38.808Z,6.10
2018-05-26T12:29:07.077Z,6.70
2018-05-26T12:31:35.341Z,5.40
2018-05-26T12:34:03.616Z,9.30
2018-05-26T12:36:32.628Z,5.30
2018-05-26T12:39:00.869Z,5.73
2018-05-26T12:41:29.871Z,5.80
2018-05-26T12:43:58.883Z,5.60
2018-05-26T12:46:27.886Z,5.93
2018-05-26T12:48:56.150Z,5.73
2018-05-26T12:51:25.154Z,4.80
2018-05-26T12:53:53.387Z,6.13
2018-05-26T12:56:21.635Z,5.50
2018-05-26T12:58:49.898Z,5.30
2018-05-26T13:01:18.214Z,4.83
2018-05-26T13:03:47.169Z,5.37
2018-05-26T13:06:15.436Z,5.87
2018-05-26T13:08:44.461Z,5.20
2018-05-26T13:11:12.732Z,5.13
2018-05-26T13:13:40.996Z,4.50
2018-05-26T13:16:10.016Z,5.00
2018-05-26T13:18:38.267Z,5.73
2018-05-26T13:21:07.290Z,5.50
2018-05-26T13:23:36.313Z,5.80
2018-05-26T13:26:04.556Z,4.97
2018-05-26T13:28:33.782Z,9.33
2018-05-26T13:31:02.045Z,9.97
2018-05-26T13:33:30.346Z,5.30
2018-05-26T13:35:58.615Z,5.00
2018-05-26T13:38:26.845Z,4.30
2018-05-26T13:40:56.612Z,5.10
2018-05-26T13:43:24.853Z,5.03
2018-05-26T13:45:53.155Z,4.80
2018-05-26T13:48:22.232Z,5.23
2018-05-26T13:50:50.665Z,4.53
2018-05-26T13:53:18.951Z,5.03
2018-05-26T13:55:48.011Z,5.70
2018-05-26T13:58:16.193Z,5.20
2018-05-26T14:00:45.219Z,4.80
2018-05-26T14:03:13.489Z,4.50
2018-05-26T14:05:41.746Z,5.43
2018-05-26T14:08:10.755Z,5.20
2018-05-26T14:10:39.788Z,5.03
2018-05-26T14:13:08.049Z,5.30
2018-05-26T14:15:36.285Z,8.30
2018-05-26T14:18:05.340Z,4.43
2018-05-26T14:20:33.589Z,5.17
2018-05-26T14:23:02.588Z,4.43
2018-05-26T14:25:30.811Z,4.60
2018-05-26T14:27:59.160Z,4.77
2018-05-26T14:30:27.397Z,4.67
2018-05-26T14:32:56.469Z,4.97
2018-05-26T14:35:24.696Z,3.93
2018-05-26T14:37:53.722Z,4.63
2018-05-26T14:40:21.971Z,4.60
2018-05-26T14:42:51.009Z,4.80
2018-05-26T14:45:19.266Z,4.60
2018-05-26T14:47:48.287Z,5.10
2018-05-26T14:50:16.529Z,5.90
2018-05-26T14:52:45.536Z,4.93
2018-05-26T14:55:14.551Z,4.37
2018-05-26T14:57:42.799Z,4.10
2018-05-26T15:00:11.816Z,5.73
2018-05-26T15:02:40.052Z,5.53
2018-05-26T15:05:08.312Z,5.50
2018-05-26T15:07:36.556Z,4.30
2018-05-26T15:10:05.591Z,4.70
2018-05-26T15:12:33.813Z,4.77
2018-05-26T15:15:02.860Z,4.90
2018-05-26T15:17:31.120Z,5.00
2018-05-26T15:19:59.391Z,12.60
2018-05-26T15:22:28.414Z,4.60
2018-05-26T15:24:57.706Z,5.73
2018-05-26T15:27:25.943Z,6.40
2018-05-26T15:29:54.976Z,5.63
2018-05-26T15:32:23.258Z,5.07
2018-05-26T15:34:51.530Z,5.90
2018-05-26T15:37:20.521Z,5.23
2018-05-26T15:39:49.526Z,5.70
2018-05-26T15:42:17.792Z,4.93
2018-05-26T15:44:46.828Z,4.73
2018-05-26T15:47:15.097Z,5.07
2018-05-26T15:49:43.353Z,6.50
2018-05-26T15:52:12.392Z,4.47
2018-05-26T15:54:40.648Z,4.57
2018-05-26T15:57:08.910Z,5.70
2018-05-26T15:59:37.946Z,4.87
2018-05-26T16:02:06.207Z,4.50
2018-05-26T16:04:35.217Z,4.80
2018-05-26T16:07:03.461Z,4.50
2018-05-26T16:09:32.551Z,5.97
2018-05-26T16:12:00.830Z,4.93
2018-05-26T16:14:29.142Z,4.43
2018-05-26T16:16:57.384Z,4.83
2018-05-26T16:19:27.254Z,5.43
2018-05-26T16:21:55.641Z,4.50
2018-05-26T16:24:23.933Z,5.20
2018-05-26T16:26:52.220Z,5.90
2018-05-26T16:29:20.494Z,6.50
2018-05-26T16:31:48.792Z,5.43
2018-05-26T16:34:17.122Z,5.73
2018-05-26T16:36:50.084Z,6.10
2018-05-26T16:39:19.146Z,5.70
2018-05-26T16:41:47.460Z,5.20
2018-05-26T16:44:17.237Z,7.03
2018-05-26T16:46:46.340Z,5.43
2018-05-26T16:49:14.696Z,6.37
2018-05-26T16:51:43.755Z,6.00
2018-05-26T16:54:13.073Z,5.80
2018-05-26T16:56:42.107Z,4.27
2018-05-26T16:59:10.402Z,6.13
2018-05-26T17:01:38.943Z,5.10
2018-05-26T17:04:07.483Z,4.77
2018-05-26T17:06:36.779Z,5.00
2018-05-26T17:09:05.902Z,5.10
2018-05-26T17:11:34.585Z,5.20
2018-05-26T17:14:03.318Z,4.87
2018-05-26T17:16:36.541Z,5.07
2018-05-26T17:19:05.677Z,4.80
2018-05-26T17:21:33.999Z,6.03
2018-05-26T17:24:02.989Z,5.93
2018-05-26T17:26:32.015Z,6.20
2018-05-26T17:29:00.257Z,5.20
2018-05-26T17:31:29.277Z,5.03
2018-05-26T17:33:57.545Z,6.03
2018-05-26T17:36:26.550Z,4.83
2018-05-26T17:38:54.795Z,6.00
2018-05-26T17:41:23.041Z,5.10
2018-05-26T17:43:51.352Z,5.37
2018-05-26T17:46:19.593Z,5.13
2018-05-26T17:48:47.832Z,5.00
2018-05-26T17:51:16.088Z,7.63
2018-05-26T17:53:44.346Z,6.20
2018-05-26T17:56:12.578Z,5.07
2018-05-26T17:58:48.252Z,5.00
2018-05-26T18:01:23.932Z,5.40
2018-05-26T18:03:52.918Z,5.83
2018-05-26T18:06:21.662Z,4.90
2018-05-26T18:08:49.934Z,5.47
2018-05-26T18:11:18.374Z,7.07
2018-05-26T18:13:46.625Z,5.57
2018-05-26T18:16:14.894Z,6.03
2018-05-26T18:18:43.939Z,5.33
2018-05-26T18:21:12.956Z,6.60
2018-05-26T18:23:41.198Z,4.90
2018-05-26T18:26:09.459Z,5.77
2018-05-26T18:28:37.735Z,4.93
2018-05-26T18:31:06.754Z,5.80
2018-05-26T18:33:35.033Z,5.03
2018-05-26T18:36:03.273Z,5.77
2018-05-26T18:38:31.541Z,4.80
2018-05-26T18:40:59.784Z,5.60
2018-05-26T18:43:28.055Z,5.03
2018-05-26T18:45:56.368Z,5.60
2018-05-26T18:48:24.604Z,6.10
2018-05-26T18:50:52.852Z,4.77
2018-05-26T18:53:21.100Z,4.67
2018-05-26T18:55:49.373Z,5.17
2018-05-26T18:58:17.610Z,5.17
2018-05-26T19:00:47.731Z,4.70
2018-05-26T19:03:15.981Z,4.97
2018-05-26T19:05:45.768Z,5.97
2018-05-26T19:08:15.019Z,5.40
2018-05-26T19:10:47.362Z,5.27
2018-05-26T19:13:15.653Z,5.27
2018-05-26T19:15:43.994Z,4.70
2018-05-26T19:18:12.235Z,4.70
2018-05-26T19:20:41.322Z,5.10
2018-05-26T19:23:11.151Z,6.03
2018-05-26T19:25:40.277Z,6.20
2018-05-26T19:28:08.673Z,5.90
2018-05-26T19:30:36.992Z,5.47
2018-05-26T19:33:05.308Z,5.97
2018-05-26T19:35:33.542Z,6.13
2018-05-26T19:38:01.794Z,5.87
2018-05-26T19:40:30.081Z,6.03
2018-05-26T19:42:58.321Z,6.47
2018-05-26T19:45:27.430Z,6.83
2018-05-26T19:47:56.456Z,5.30
2018-05-26T19:50:24.720Z,5.87
2018-05-26T19:52:53.502Z,6.13
2018-05-26T19:55:21.813Z,6.07
2018-05-26T19:57:50.116Z,6.40
2018-05-26T20:00:18.396Z,5.90
2018-05-26T20:02:46.897Z,7.50
2018-05-26T20:05:15.378Z,6.13
2018-05-26T20:07:43.686Z,6.00
2018-05-26T20:10:12.737Z,6.10
2018-05-26T20:12:41.153Z,7.37
2018-05-26T20:15:10.254Z,6.77
2018-05-26T20:17:38.485Z,7.17
2018-05-26T20:20:07.029Z,7.23
2018-05-26T20:22:35.255Z,6.63
2018-05-26T20:25:03.503Z,6.10
2018-05-26T20:27:32.590Z,5.50
2018-05-26T20:30:01.726Z,6.20
2018-05-26T20:32:31.532Z,5.50
2018-05-26T20:34:59.908Z,6.90
2018-05-26T20:37:29.173Z,5.83
2018-05-26T20:39:57.435Z,5.97
2018-05-26T20:42:25.683Z,6.20
2018-05-26T20:44:54.123Z,6.67
2018-05-26T20:47:22.355Z,5.70
2018-05-26T20:49:50.633Z,5.73
2018-05-26T20:52:18.874Z,6.20
2018-05-26T20:54:47.903Z,5.50
2018-05-26T20:57:16.252Z,6.03
2018-05-26T20:59:45.299Z,6.13
2018-05-26T21:02:13.561Z,7.07
2018-05-26T21:04:42.776Z,7.60
2018-05-26T21:07:11.036Z,7.30
2018-05-26T21:09:40.049Z,7.30
2018-05-26T21:12:08.311Z,7.77
2018-05-26T21:14:37.319Z,7.03
2018-05-26T21:17:05.591Z,7.10
2018-05-26T21:19:33.865Z,7.53
2018-05-26T21:22:02.386Z,7.23
2018-05-26T21:24:30.639Z,7.60
2018-05-26T21:26:59.655Z,8.33
2018-05-26T21:29:27.960Z,7.47
2018-05-26T21:31:56.217Z,7.37
2018-05-26T21:34:24.460Z,7.77
2018-05-26T21:36:53.488Z,8.93
2018-05-26T21:39:21.769Z,8.80
2018-05-26T21:41:50.050Z,8.43
2018-05-26T21:44:18.320Z,7.80
2018-05-26T21:46:47.305Z,8.33
2018-05-26T21:49:16.340Z,8.53
2018-05-26T21:51:44.610Z,8.90
2018-05-26T21:54:12.861Z,9.40
2018-05-26T21:56:41.868Z,7.63
2018-05-26T21:59:10.894Z,6.77
2018-05-26T22:01:39.137Z,6.80
2018-05-26T22:04:08.502Z,7.73
2018-05-26T22:06:36.739Z,13.03
2018-05-26T22:09:04.983Z,8.80
2018-05-26T22:11:34.348Z,9.90
2018-05-26T22:14:02.596Z,10.13
2018-05-26T22:16:30.868Z,9.03
2018-05-26T22:19:00.211Z,6.77
2018-05-26T22:21:28.458Z,6.60
2018-05-26T22:23:57.486Z,6.37
2018-05-26T22:26:26.502Z,7.50
2018-05-26T22:28:55.042Z,8.30
2018-05-26T22:31:23.894Z,9.90
2018-05-26T22:33:52.143Z,10.20
2018-05-26T22:36:20.716Z,10.40
2018-05-26T22:38:49.600Z,9.17
2018-05-26T22:41:18.802Z,10.00
2018-05-26T22:43:48.523Z,8.70
2018-05-26T22:46:17.795Z,8.70
2018-05-26T22:48:46.277Z,8.13
2018-05-26T22:51:14.813Z,9.13
2018-05-26T22:53:43.620Z,8.33
2018-05-26T22:56:12.090Z,7.83
2018-05-26T22:58:41.169Z,7.30
2018-05-26T23:01:10.325Z,7.23
2018-05-26T23:03:39.065Z,9.60
2018-05-26T23:06:07.977Z,10.17
2018-05-26T23:08:36.239Z,10.40
2018-05-26T23:11:04.550Z,11.23
2018-05-26T23:13:32.771Z,10.90
2018-05-26T23:16:01.596Z,10.63
2018-05-26T23:18:30.253Z,10.00
2018-05-26T23:20:58.782Z,9.90
2018-05-26T23:23:27.049Z,8.77
2018-05-26T23:25:55.296Z,9.67
2018-05-26T23:28:23.591Z,9.37
2018-05-26T23:30:52.603Z,9.00
2018-05-26T23:33:20.871Z,7.80
2018-05-26T23:35:49.871Z,7.97
2018-05-26T23:38:18.906Z,8.43
2018-05-26T23:40:47.146Z,7.47
2018-05-26T23:43:16.240Z,9.67
2018-05-26T23:45:44.924Z,9.30
2018-05-26T23:48:17.563Z,9.70
2018-05-26T23:50:45.812Z,9.87
2018-05-26T23:53:15.712Z,9.87
2018-05-26T23:55:44.032Z,10.57
2018-05-26T23:58:12.533Z,11.63
